Latest Coastal Weather Observations for Hillarys Point Boat Harbour

IDW60701

Issued at 12:05 pm WST Wednesday 26 November 2014 (issued every 10 minutes, with the page automatically refreshed every 10 minutes)

About coastal observations | Map of coastal stations | Coastal observations for WA | Marine services | Other Formats
Station Details ID: 009265 Name: HILLARYS BOAT HARBOUR NTC AWS Lat: -31.83 Lon: 115.74 Height: 0.0 m
Data from the previous 72 hours. | See also: Recent months for locations in Western Australia
Date/Time
WST
Temp

°C
Wind Pressure Rain
since 9am
mm
Weather Cloud Vis
km
Sea
Height
m
Swell
Dir
 
Speed
knots
Gust
knots
hPa Trend Height
m
Period
s
Dir
26/12:00pm 31.7 E 6 13 1008.5 - - - - - - - - -
26/11:30am 30.8 E 7 14 1008.6 - - - - - - - - -
26/11:00am 29.7 ENE 10 17 1009.1 - - - - - - - - -
26/10:30am 29.2 ENE 10 19 1009.7 - - - - - - - - -
26/10:00am 27.6 ENE 11 16 1010.4 - - - - - - - - -
26/09:30am 27.0 ENE 11 20 1010.6 - - - - - - - - -
26/09:00am 26.8 ENE 11 22 1011.0 - - - - - - - - -
26/08:30am 24.7 ENE 9 15 1011.2 - - - - - - - - -
26/08:00am 23.5 ENE 9 18 1011.3 - - - - - - - - -
26/07:30am 22.2 E 10 17 1011.4 - - - - - - - - -
26/07:00am 21.8 ENE 9 19 1011.4 - - - - - - - - -
26/06:30am 21.4 ENE 11 18 1011.3 - - - - - - - - -
26/06:00am 21.1 E 10 17 1011.2 - - - - - - - - -
26/05:30am 20.9 E 11 18 1011.2 - - - - - - - - -
26/05:00am 21.1 E 11 19 1011.1 - - - - - - - - -
26/04:30am 21.4 E 10 18 1011.3 - - - - - - - - -
26/04:00am 21.5 E 8 13 1011.1 - - - - - - - - -
26/03:30am 21.7 E 8 14 1011.0 - - - - - - - - -
26/03:00am 22.0 E 8 15 1010.8 - - - - - - - - -
26/02:30am 22.6 E 9 16 1010.7 - - - - - - - - -
26/02:00am 23.1 E 8 16 1010.7 - - - - - - - - -
26/01:30am 24.0 E 7 14 1010.8 - - - - - - - - -
26/01:00am 24.8 E 9 17 1010.8 - - - - - - - - -
26/12:30am 26.1 E 9 18 1010.8 - - - - - - - - -
26/12:00am 26.8 E 10 22 1010.8 - - - - - - - - -
 
Date/Time
WST
Temp

°C
Wind Pressure Rain
since 9am
mm
Weather Cloud Vis
km
Sea
Height
m
Swell
Dir
 
Speed
knots
Gust
knots
hPa Trend Height
m
Period
s
Dir
25/11:30pm 27.2 E 8 16 1011.2 - - - - - - - - -
25/11:00pm 27.5 E 7 13 1011.3 - - - - - - - - -
25/10:30pm 27.8 E 6 13 1011.6 - - - - - - - - -
25/10:00pm 28.2 E 6 14 1011.8 - - - - - - - - -
25/09:30pm 27.5 E 2 5 1011.8 - - - - - - - - -
25/09:00pm 26.7 SSE 1 3 1011.9 - - - - - - - - -
25/08:30pm 22.1 SSE 2 4 1011.8 - - - - - - - - -
25/08:00pm 22.2 SSE 1 4 1011.8 - - - - - - - - -
25/07:30pm 22.4 SSE 3 6 1011.5 - - - - - - - - -
25/07:00pm 22.7 S 3 7 1011.3 - - - - - - - - -
25/06:30pm 23.3 S 3 7 1011.2 - - - - - - - - -
25/06:00pm 23.7 S 3 9 1011.4 - - - - - - - - -
25/05:30pm 23.3 S 3 11 1011.4 - - - - - - - - -
25/05:00pm 23.3 S 4 11 1011.6 - - - - - - - - -
25/04:30pm 23.6 S 5 12 1012.0 - - - - - - - - -
25/04:00pm 23.3 S 5 13 1012.3 - - - - - - - - -
25/03:30pm 24.1 S 4 10 1012.5 - - - - - - - - -
25/03:00pm 23.9 SSW 6 13 1012.9 - - - - - - - - -
25/02:30pm 23.6 SSW 8 14 1013.3 - - - - - - - - -
25/02:00pm 23.3 SSW 7 12 1013.6 - - - - - - - - -
25/01:30pm 23.3 SSW 6 14 1014.0 - - - - - - - - -
25/01:00pm 23.5 SSW 7 13 1014.5 - - - - - - - - -
25/12:39pm 24.3 S 5 13 1014.9 - - - - - - - - -
25/12:30pm 29.4 S 4 8 1014.9 - - - - - - - - -
25/12:00pm 29.5 SE 3 8 1015.3 - - - - - - - - -
25/11:30am 28.6 ESE 3 6 1015.6 - - - - - - - - -
25/11:00am 27.8 E 6 12 1016.1 - - - - - - - - -
25/10:30am 26.8 ENE 8 14 1016.2 - - - - - - - - -
25/10:00am 25.1 ENE 12 17 1016.6 - - - - - - - - -
25/09:30am 23.7 ENE 10 19 1016.9 - - - - - - - - -
25/09:00am 22.5 E 11 18 1017.2 - - - - - - - - -
25/08:30am 20.7 ENE 11 19 1017.6 - - - - - - - - -
25/08:00am 19.3 ENE 12 21 1017.6 - - - - - - - - -
25/07:30am 18.0 E 10 17 1017.7 - - - - - - - - -
25/07:00am 16.7 E 10 16 1017.4 - - - - - - - - -
25/06:30am 16.1 ENE 11 19 1017.4 - - - - - - - - -
25/06:00am 15.6 E 11 20 1017.2 - - - - - - - - -
25/05:30am 15.8 E 12 21 1017.1 - - - - - - - - -
25/05:00am 16.2 E 12 21 1016.7 - - - - - - - - -
25/04:30am 16.7 E 11 19 1016.6 - - - - - - - - -
25/04:00am 17.0 E 10 20 1016.4 - - - - - - - - -
25/03:30am 17.4 E 9 16 1016.3 - - - - - - - - -
25/03:00am 17.9 E 10 17 1016.4 - - - - - - - - -
25/02:30am 18.3 E 9 15 1016.6 - - - - - - - - -
25/02:00am 18.7 E 8 14 1016.6 - - - - - - - - -
25/01:30am 19.0 E 6 13 1016.8 - - - - - - - - -
25/01:00am 18.5 E 3 9 1017.1 - - - - - - - - -
25/12:30am 17.6 SSE 3 5 1017.4 - - - - - - - - -
25/12:00am 18.2 SSE 3 5 1017.5 - - - - - - - - -
 
Date/Time
WST
Temp

°C
Wind Pressure Rain
since 9am
mm
Weather Cloud Vis
km
Sea
Height
m
Swell
Dir
 
Speed
knots
Gust
knots
hPa Trend Height
m
Period
s
Dir
24/11:30pm 18.4 SSE 3 6 1017.6 - - - - - - - - -
24/11:00pm 18.7 SSE 3 6 1017.8 - - - - - - - - -
24/10:30pm 19.1 SSE 4 7 1018.1 - - - - - - - - -
24/10:00pm 19.3 SSE 5 9 1018.4 - - - - - - - - -
24/09:30pm 19.3 S 4 8 1018.6 - - - - - - - - -
24/09:00pm 19.4 SSE 5 10 1018.6 - - - - - - - - -
24/08:30pm 19.4 S 5 9 1018.6 - - - - - - - - -
24/08:00pm 19.5 S 5 13 1018.4 - - - - - - - - -
24/07:30pm 19.7 S 7 14 1018.4 - - - - - - - - -
24/07:00pm 19.6 S 6 13 1018.2 - - - - - - - - -
24/06:30pm 19.5 S 6 14 1018.0 - - - - - - - - -
24/06:00pm 19.6 S 9 19 1017.7 - - - - - - - - -
24/05:30pm 19.5 S 9 17 1017.5 - - - - - - - - -
24/05:00pm 19.9 SSW 8 14 1017.4 - - - - - - - - -
24/04:30pm 19.5 S 8 15 1017.3 - - - - - - - - -
24/04:00pm 19.4 SSW 8 19 1017.4 - - - - - - - - -
24/03:30pm 19.5 S 8 17 1017.7 - - - - - - - - -
24/03:00pm 19.2 SSW 9 18 1017.9 - - - - - - - - -
24/02:30pm 19.7 SSW 10 18 1018.2 - - - - - - - - -
24/02:00pm 19.6 SSW 9 17 1018.4 - - - - - - - - -
24/01:30pm 19.3 SSW 10 17 1018.6 - - - - - - - - -
24/01:00pm 19.3 SSW 8 15 1018.9 - - - - - - - - -
24/12:30pm 19.6 SW 10 16 1019.2 - - - - - - - - -
24/12:00pm 22.9 SE 3 9 1019.5 - - - - - - - - -
24/11:30am 21.7 SSE 3 7 1020.0 - - - - - - - - -
24/11:00am 22.4 ESE 4 10 1020.4 - - - - - - - - -
24/10:30am 21.0 SE 4 9 1020.7 - - - - - - - - -
24/10:00am 20.6 SE 3 7 1021.0 - - - - - - - - -
24/09:30am 19.1 ENE 6 10 1021.1 - - - - - - - - -
24/09:00am 18.1 E 6 12 1021.4 - - - - - - - - -
24/08:30am 16.8 E 7 11 1021.7 - - - - - - - - -
24/08:00am 16.0 E 8 17 1021.8 - - - - - - - - -
24/07:30am 15.4 E 9 17 1021.7 - - - - - - - - -
24/07:00am 14.9 E 8 17 1021.6 - - - - - - - - -
24/06:30am 14.0 E 6 11 1021.6 - - - - - - - - -
24/06:00am 13.7 E 4 14 1021.6 - - - - - - - - -
24/05:30am 13.1 ESE 2 7 1021.5 - - - - - - - - -
24/05:00am 13.0 ESE 1 4 1021.3 - - - - - - - - -
24/04:30am 13.2 ESE 2 6 1020.8 - - - - - - - - -
24/04:00am 13.3 SE 2 6 1020.5 - - - - - - - - -
24/03:30am 13.8 SSE 4 8 1020.6 - - - - - - - - -
24/03:00am 14.0 SSE 4 8 1020.4 - - - - - - - - -
24/02:30am 14.2 SSE 5 8 1020.2 - - - - - - - - -
24/02:00am 14.5 SSE 5 9 1020.2 - - - - - - - - -
24/01:30am 14.7 SSE 6 13 1020.1 - - - - - - - - -
24/01:00am 15.3 S 6 12 1020.1 - - - - - - - - -
24/12:30am 15.5 SSE 5 11 1019.9 - - - - - - - - -
24/12:00am 16.0 S 5 13 1019.9 - - - - - - - - -
 
Date/Time
WST
Temp

°C
Wind Pressure Rain
since 9am
mm
Weather Cloud Vis
km
Sea
Height
m
Swell
Dir
 
Speed
knots
Gust
knots
hPa Trend Height
m
Period
s
Dir
23/11:30pm 16.3 S 5 11 1019.9 - - - - - - - - -
23/11:00pm 17.0 S 5 12 1019.9 - - - - - - - - -
23/10:30pm 17.6 SSE 6 12 1019.7 - - - - - - - - -
23/10:00pm 18.0 SSE 6 11 1019.7 - - - - - - - - -
23/09:30pm 18.4 S 6 15 1019.6 - - - - - - - - -
23/09:00pm 18.4 SSW 7 13 1019.4 - - - - - - - - -
23/08:30pm 18.4 SSW 7 16 1019.1 - - - - - - - - -
23/08:00pm 18.1 SSW 7 14 1018.8 - - - - - - - - -
23/07:30pm 18.0 SSW 7 15 1018.5 - - - - - - - - -
23/07:00pm 18.1 SSW 8 17 1018.3 - - - - - - - - -
23/06:30pm 18.2 SSW 9 16 1017.9 - - - - - - - - -
23/06:00pm 18.3 SSW 8 16 1017.5 - - - - - - - - -
23/05:30pm 18.4 SSW 10 16 1017.2 - - - - - - - - -
23/05:00pm 18.7 SSW 10 16 1017.1 - - - - - - - - -
23/04:30pm 18.7 SSW 10 18 1017.0 - - - - - - - - -
23/04:00pm 18.6 SSW 10 20 1016.8 - - - - - - - - -
23/03:30pm 18.9 SSW 9 15 1016.9 - - - - - - - - -
23/03:00pm 19.1 SSW 8 17 1016.8 - - - - - - - - -
23/02:30pm 19.3 SSW 8 14 1016.9 - - - - - - - - -
23/02:00pm 19.1 SSW 9 17 1017.0 - - - - - - - - -
23/01:30pm 19.1 SSW 8 14 1017.2 - - - - - - - - -
23/01:00pm 19.3 SSW 8 15 1017.2 - - - - - - - - -
23/12:30pm 18.8 SW 9 13 1017.4 - - - - - - - - -

Other Formats:

Comma delimited format used in spreadsheet applications
http://www.bom.gov.au/fwo/IDW60701/IDW60701.95605.axf

JavaScript Object Notation format (JSON) in row-major order
http://www.bom.gov.au/fwo/IDW60701/IDW60701.95605.json